Time;durP1;ratioP1;P1;durP2;ratioP2;P2;SDS_P1;SDS_P2;PMS_P1;PMS_P2;Temp;Humidity;BMP_temperature;BMP_pressure;BME280_temperature;BME280_humidity;BME280_pressure;Samples;Min_cycle;Max_cycle;Signal;HPM_P1;HPM_P2
2023/09/22 05:03:25;;;;;;;2.40;1.17;;;;;;;;;;5094480;27;20385;-82
2023/09/22 05:05:52;;;;;;;0.65;0.60;;;;;;;;;;5082426;28;20089;-83
2023/09/22 05:08:17;;;;;;;0.75;0.75;;;;;;;;;;5094494;28;20020;-83
2023/09/22 05:10:49;;;;;;;1.75;1.05;;;;;;;;;;5071074;28;20377;-83
2023/09/22 05:13:18;;;;;;;0.73;0.73;;;;;;;;;;5089253;28;20036;-83
2023/09/22 05:15:45;;;;;;;1.48;1.08;;;;;;;;;;5092101;28;20104;-83
2023/09/22 05:18:14;;;;;;;7.18;0.60;;;;;;;;;;5067370;28;20111;-83
2023/09/22 05:20:43;;;;;;;0.87;0.50;;;;;;;;;;5077627;28;20070;-83
2023/09/22 05:23:09;;;;;;;2.23;1.27;;;;;;;;;;5091793;28;20272;-83
2023/09/22 05:25:41;;;;;;;0.73;0.70;;;;;;;;;;5086962;28;20036;-83
2023/09/22 05:28:10;;;;;;;1.52;0.80;;;;;;;;;;5090721;28;20103;-82
2023/09/22 05:30:38;;;;;;;0.50;0.50;;;;;;;;;;5095850;28;20028;-80
2023/09/22 05:33:07;;;;;;;0.80;0.68;;;;;;;;;;5098826;28;20020;-80
2023/09/22 05:35:34;;;;;;;1.45;1.02;;;;;;;;;;5094757;28;20042;-87
2023/09/22 05:38:01;;;;;;;0.65;0.65;;;;;;;;;;5093942;28;20024;-81
2023/09/22 05:40:27;;;;;;;0.82;0.77;;;;;;;;;;5090572;28;20073;-81
2023/09/22 05:42:52;;;;;;;4.32;0.95;;;;;;;;;;5093893;28;20039;-80
2023/09/22 05:45:18;;;;;;;0.50;0.50;;;;;;;;;;5085274;28;20074;-81
2023/09/22 05:47:43;;;;;;;2.85;1.05;;;;;;;;;;5074406;28;20043;-80
2023/09/22 05:50:12;;;;;;;3.83;0.77;;;;;;;;;;5087353;28;20478;-81
2023/09/22 05:52:38;;;;;;;0.88;0.82;;;;;;;;;;5093546;28;20020;-80
2023/09/22 05:55:04;;;;;;;3.10;1.08;;;;;;;;;;5088607;28;20028;-80
2023/09/22 05:57:29;;;;;;;0.77;0.57;;;;;;;;;;5087747;28;20043;-81
2023/09/22 05:59:57;;;;;;;1.27;1.05;;;;;;;;;;5087197;28;20024;-81
2023/09/22 06:02:23;;;;;;;0.73;0.57;;;;;;;;;;5091780;28;20048;-81
2023/09/22 06:04:48;;;;;;;1.77;1.20;;;;;;;;;;5095349;28;20046;-81
2023/09/22 06:07:14;;;;;;;2.20;1.17;;;;;;;;;;5091669;28;20028;-81
2023/09/22 06:09:40;;;;;;;1.05;0.95;;;;;;;;;;5088311;28;20020;-82
2023/09/22 06:12:06;;;;;;;1.40;1.08;;;;;;;;;;5097701;28;20056;-83
2023/09/22 06:14:31;;;;;;;2.83;1.17;;;;;;;;;;5068117;28;20044;-84
2023/09/22 06:16:59;;;;;;;0.98;0.88;;;;;;;;;;5070243;28;20063;-84
2023/09/22 06:19:25;;;;;;;0.68;0.60;;;;;;;;;;5071440;28;20029;-82
2023/09/22 06:21:50;;;;;;;1.77;1.23;;;;;;;;;;5054835;28;20025;-82
2023/09/22 06:24:17;;;;;;;2.22;1.40;;;;;;;;;;5069787;28;20029;-85
2023/09/22 06:26:42;;;;;;;1.67;1.17;;;;;;;;;;5051634;28;20025;-82
2023/09/22 06:29:09;;;;;;;1.33;0.88;;;;;;;;;;5072618;28;20545;-83
2023/09/22 06:31:35;;;;;;;1.83;1.05;;;;;;;;;;5050713;28;20036;-81
2023/09/22 06:34:01;;;;;;;1.05;0.85;;;;;;;;;;5065716;28;20031;-83
2023/09/22 06:36:26;;;;;;;1.40;1.23;;;;;;;;;;5054508;28;20108;-85
2023/09/22 06:38:51;;;;;;;1.20;1.00;;;;;;;;;;5057553;28;20107;-81
2023/09/22 06:41:18;;;;;;;1.38;1.00;;;;;;;;;;5063820;28;20031;-83
2023/09/22 06:43:44;;;;;;;2.60;1.00;;;;;;;;;;5078493;28;20031;-85
2023/09/22 06:46:11;;;;;;;1.17;1.00;;;;;;;;;;5056709;28;20507;-85
2023/09/22 06:48:36;;;;;;;3.30;1.52;;;;;;;;;;5057483;28;20060;-85
2023/09/22 06:51:02;;;;;;;8.05;1.88;;;;;;;;;;5080137;28;20059;-83
2023/09/22 06:53:29;;;;;;;2.40;1.55;;;;;;;;;;5075158;28;20023;-82
2023/09/22 06:56:02;;;;;;;3.78;1.88;;;;;;;;;;5078012;28;20040;-82
2023/09/22 06:58:29;;;;;;;8.13;2.90;;;;;;;;;;5080464;28;20488;-84
2023/09/22 07:00:56;;;;;;;1.45;1.27;;;;;;;;;;5057910;28;20024;-82
2023/09/22 07:03:21;;;;;;;2.22;1.48;;;;;;;;;;5085190;28;20127;-82
2023/09/22 07:05:47;;;;;;;2.53;1.63;;;;;;;;;;5059775;28;20112;-86
2023/09/22 07:08:13;;;;;;;2.10;1.48;;;;;;;;;;5083268;28;20028;-86
2023/09/22 07:10:38;;;;;;;1.70;1.23;;;;;;;;;;5080870;28;20449;-85
2023/09/22 07:13:04;;;;;;;1.40;1.00;;;;;;;;;;5064171;28;20085;-83
2023/09/22 07:15:29;;;;;;;0.98;0.70;;;;;;;;;;5080449;28;20034;-85
2023/09/22 07:17:54;;;;;;;2.05;1.10;;;;;;;;;;5063484;28;20034;-84
2023/09/22 07:20:21;;;;;;;2.28;1.27;;;;;;;;;;5077158;28;20077;-86
2023/09/22 07:22:47;;;;;;;1.48;1.30;;;;;;;;;;5056590;28;20016;-86
2023/09/22 07:25:13;;;;;;;2.30;1.88;;;;;;;;;;5080963;28;20034;-85
2023/09/22 07:27:41;;;;;;;1.52;1.17;;;;;;;;;;5078268;28;20024;-85
2023/09/22 07:30:10;;;;;;;2.38;1.70;;;;;;;;;;5074005;28;20036;-83
2023/09/22 07:32:37;;;;;;;1.65;1.17;;;;;;;;;;5082628;28;20035;-85
2023/09/22 07:35:04;;;;;;;7.85;2.00;;;;;;;;;;5074485;28;20455;-85
2023/09/22 07:37:30;;;;;;;2.75;1.58;;;;;;;;;;5082528;28;20028;-84
2023/09/22 07:39:55;;;;;;;2.03;1.25;;;;;;;;;;5082275;28;20128;-86
2023/09/22 07:42:20;;;;;;;2.85;2.03;;;;;;;;;;5082755;28;20548;-84
2023/09/22 07:44:46;;;;;;;2.28;1.70;;;;;;;;;;5081467;28;20029;-85
2023/09/22 07:47:14;;;;;;;2.90;1.67;;;;;;;;;;5059574;28;20480;-84
2023/09/22 07:49:43;;;;;;;1.45;1.00;;;;;;;;;;5082055;28;20040;-86
2023/09/22 07:52:10;;;;;;;1.48;1.20;;;;;;;;;;5068261;28;20370;-84
2023/09/22 07:54:36;;;;;;;2.70;1.88;;;;;;;;;;5061859;28;20029;-85
2023/09/22 07:57:02;;;;;;;4.60;2.65;;;;;;;;;;5065594;28;20031;-84
2023/09/22 07:59:31;;;;;;;1.48;1.25;;;;;;;;;;5080450;28;20029;-83
2023/09/22 08:02:02;;;;;;;1.13;1.02;;;;;;;;;;5087606;28;20040;-83
2023/09/22 08:04:27;;;;;;;3.90;1.58;;;;;;;;;;5079436;28;20495;-84
2023/09/22 08:06:53;;;;;;;2.30;1.45;;;;;;;;;;5062367;28;20020;-84
2023/09/22 08:09:18;;;;;;;1.98;1.50;;;;;;;;;;5064946;28;20028;-85
2023/09/22 08:11:44;;;;;;;2.50;1.75;;;;;;;;;;5073276;28;20025;-84
2023/09/22 08:14:10;;;;;;;1.20;1.05;;;;;;;;;;5078172;28;20031;-86
2023/09/22 08:16:35;;;;;;;2.33;1.63;;;;;;;;;;5062297;28;20115;-85
2023/09/22 08:19:00;;;;;;;5.35;2.50;;;;;;;;;;5068349;28;20077;-83
2023/09/22 08:21:26;;;;;;;1.35;1.02;;;;;;;;;;5080858;28;20073;-86
2023/09/22 08:23:51;;;;;;;2.35;1.55;;;;;;;;;;5076507;28;20376;-86
2023/09/22 08:26:20;;;;;;;2.55;1.88;;;;;;;;;;5057431;28;20362;-86
2023/09/22 08:28:47;;;;;;;2.97;1.40;;;;;;;;;;5073761;28;20025;-85
2023/09/22 08:31:13;;;;;;;2.72;1.92;;;;;;;;;;5081365;28;20032;-84
2023/09/22 08:33:40;;;;;;;3.80;1.55;;;;;;;;;;5052825;28;20453;-85
2023/09/22 08:36:06;;;;;;;3.85;2.05;;;;;;;;;;5071830;28;20102;-85
2023/09/22 08:38:32;;;;;;;4.35;1.73;;;;;;;;;;5084689;28;20099;-85
2023/09/22 08:41:05;;;;;;;6.78;2.67;;;;;;;;;;5057692;28;20037;-85
2023/09/22 08:43:32;;;;;;;2.03;1.63;;;;;;;;;;5070893;28;20032;-83
2023/09/22 08:45:59;;;;;;;1.88;1.20;;;;;;;;;;5073535;28;20032;-87
2023/09/22 08:48:24;;;;;;;6.72;1.77;;;;;;;;;;5068740;28;20044;-84
2023/09/22 08:50:50;;;;;;;3.25;1.25;;;;;;;;;;5074717;28;20024;-85
2023/09/22 08:53:17;;;;;;;1.23;0.90;;;;;;;;;;5076038;28;20477;-83
2023/09/22 08:55:43;;;;;;;2.63;1.75;;;;;;;;;;5061489;28;20020;-85
2023/09/22 08:58:08;;;;;;;1.67;1.33;;;;;;;;;;5080433;28;20489;-83
2023/09/22 09:00:34;;;;;;;4.35;1.90;;;;;;;;;;5060154;28;20111;-86
2023/09/22 09:03:07;;;;;;;1.77;1.27;;;;;;;;;;5076516;28;20047;-85
2023/09/22 09:05:33;;;;;;;2.88;1.35;;;;;;;;;;5082102;28;20020;-85
2023/09/22 09:08:11;;;;;;;1.58;1.45;;;;;;;;;;5080990;28;20396;-86
2023/09/22 09:10:38;;;;;;;8.30;1.95;;;;;;;;;;5058354;28;20493;-80
2023/09/22 09:13:06;;;;;;;2.15;1.75;;;;;;;;;;5082784;28;20056;-84
2023/09/22 09:15:46;;;;;;;2.33;1.52;;;;;;;;;;5075202;28;20036;-80
2023/09/22 09:18:13;;;;;;;2.38;1.52;;;;;;;;;;5082650;28;20040;-80
2023/09/22 09:20:43;;;;;;;7.68;1.20;;;;;;;;;;5055066;28;20039;-81
2023/09/22 09:23:13;;;;;;;1.77;1.20;;;;;;;;;;5080205;28;20021;-81
2023/09/22 09:25:41;;;;;;;1.40;1.10;;;;;;;;;;5055919;28;20035;-80
2023/09/22 09:28:08;;;;;;;2.13;1.55;;;;;;;;;;5062053;28;20032;-81
2023/09/22 09:30:33;;;;;;;3.30;1.27;;;;;;;;;;5080043;28;20031;-79
2023/09/22 09:33:12;;;;;;;2.35;1.38;;;;;;;;;;5087292;28;20020;-80
2023/09/22 09:35:39;;;;;;;2.08;1.58;;;;;;;;;;5075017;28;20032;-80
2023/09/22 09:38:05;;;;;;;1.35;1.15;;;;;;;;;;5051913;28;20091;-80
2023/09/22 09:40:37;;;;;;;2.72;1.77;;;;;;;;;;5085878;28;20031;-81
2023/09/22 09:43:13;;;;;;;2.20;1.25;;;;;;;;;;5077591;28;20032;-81
2023/09/22 09:45:57;;;;;;;2.65;1.67;;;;;;;;;;5079989;28;20059;-82
2023/09/22 09:48:24;;;;;;;1.27;1.10;;;;;;;;;;5060848;28;20384;-81
2023/09/22 09:50:53;;;;;;;8.75;1.85;;;;;;;;;;5061908;28;20430;-79
2023/09/22 09:53:38;;;;;;;1.38;1.15;;;;;;;;;;5060709;28;20031;-83
2023/09/22 09:56:05;;;;;;;1.95;1.35;;;;;;;;;;5063228;28;20028;-82
2023/09/22 09:58:32;;;;;;;1.17;1.05;;;;;;;;;;5069383;28;20035;-83
2023/09/22 10:01:00;;;;;;;1.77;1.52;;;;;;;;;;5082447;28;20024;-81
2023/09/22 10:03:26;;;;;;;2.47;1.70;;;;;;;;;;5063599;28;20028;-83
2023/09/22 10:05:56;;;;;;;5.57;2.22;;;;;;;;;;5083230;28;20109;-83
2023/09/22 10:08:26;;;;;;;1.42;1.33;;;;;;;;;;5078769;28;20416;-81
2023/09/22 10:10:56;;;;;;;3.33;1.80;;;;;;;;;;5062490;28;20035;-81
2023/09/22 10:13:21;;;;;;;2.40;1.73;;;;;;;;;;5067241;28;20027;-83
2023/09/22 10:15:59;;;;;;;3.00;1.42;;;;;;;;;;5076089;28;20052;-83
2023/09/22 10:18:49;;;;;;;2.35;1.05;;;;;;;;;;5088446;28;20087;-84
2023/09/22 10:21:34;;;;;;;;;;;;;;;;;;5062061;28;20027;-84
2023/09/22 10:24:26;;;;;;;1.25;0.98;;;;;;;;;;5062390;28;19912;-84
2023/09/22 10:26:54;;;;;;;1.90;1.30;;;;;;;;;;5064798;28;20468;-84
2023/09/22 10:29:35;;;;;;;3.65;2.03;;;;;;;;;;5075493;28;20060;-82
2023/09/22 10:32:19;;;;;;;2.28;1.65;;;;;;;;;;5078730;28;20028;-84
2023/09/22 10:34:49;;;;;;;2.63;1.65;;;;;;;;;;5077560;28;20024;-84
2023/09/22 10:37:15;;;;;;;4.28;1.65;;;;;;;;;;5078792;28;20123;-85
2023/09/22 10:40:08;;;;;;;2.13;1.33;;;;;;;;;;5062670;28;20120;-85
2023/09/22 10:42:45;;;;;;;3.65;1.88;;;;;;;;;;5064517;28;20031;-87
2023/09/22 10:45:12;;;;;;;3.15;1.98;;;;;;;;;;5079231;28;20039;-84
2023/09/22 10:47:44;;;;;;;2.40;1.60;;;;;;;;;;5064286;28;20036;-85
2023/09/22 10:50:13;;;;;;;2.08;1.45;;;;;;;;;;5084917;28;20027;-86
2023/09/22 10:52:41;;;;;;;6.47;2.30;;;;;;;;;;5082548;28;20468;-85
2023/09/22 10:55:07;;;;;;;2.53;1.23;;;;;;;;;;5078318;28;20029;-86
2023/09/22 10:57:33;;;;;;;3.08;1.73;;;;;;;;;;5077481;28;20074;-86
2023/09/22 11:00:06;;;;;;;6.32;2.33;;;;;;;;;;5077005;28;20020;-85
2023/09/22 11:02:33;;;;;;;3.72;1.52;;;;;;;;;;5067810;28;20047;-86
2023/09/22 11:04:59;;;;;;;6.00;1.70;;;;;;;;;;5085623;28;20028;-84
2023/09/22 11:07:35;;;;;;;6.03;1.55;;;;;;;;;;5081010;28;20396;-86
2023/09/22 11:10:02;;;;;;;4.15;1.67;;;;;;;;;;5082613;28;20028;-87
2023/09/22 11:12:28;;;;;;;2.53;1.58;;;;;;;;;;5062504;28;20035;-86
2023/09/22 11:14:54;;;;;;;2.17;1.67;;;;;;;;;;5083647;28;20024;-86
2023/09/22 11:17:21;;;;;;;3.05;1.92;;;;;;;;;;5068366;28;20024;-86
2023/09/22 11:19:54;;;;;;;2.90;1.48;;;;;;;;;;5084653;28;20021;-87
2023/09/22 11:22:20;;;;;;;3.58;1.80;;;;;;;;;;5086850;28;20538;-84
2023/09/22 11:24:46;;;;;;;2.38;1.58;;;;;;;;;;5087114;28;20399;-85
2023/09/22 11:27:12;;;;;;;5.55;2.03;;;;;;;;;;5082652;28;20493;-83
2023/09/22 11:29:39;;;;;;;5.32;1.45;;;;;;;;;;5057425;28;20029;-83
2023/09/22 11:32:06;;;;;;;3.72;2.03;;;;;;;;;;5075322;28;20074;-83
2023/09/22 11:34:32;;;;;;;6.28;1.55;;;;;;;;;;5076682;28;20024;-84
2023/09/22 11:36:57;;;;;;;2.20;1.60;;;;;;;;;;5079028;28;20028;-84
2023/09/22 11:39:27;;;;;;;2.55;1.27;;;;;;;;;;5078467;28;20071;-86
2023/09/22 11:41:54;;;;;;;2.00;1.50;;;;;;;;;;5064262;28;20020;-84
2023/09/22 11:44:20;;;;;;;2.75;1.63;;;;;;;;;;5078983;28;20039;-85
2023/09/22 11:46:46;;;;;;;3.20;1.73;;;;;;;;;;5074416;28;20028;-84
2023/09/22 11:49:12;;;;;;;2.80;1.08;;;;;;;;;;5081227;28;20051;-85
2023/09/22 11:51:55;;;;;;;1.77;1.35;;;;;;;;;;5077051;28;20060;-84
2023/09/22 11:54:26;;;;;;;2.60;1.50;;;;;;;;;;5063648;28;20031;-84
2023/09/22 11:56:57;;;;;;;3.03;1.08;;;;;;;;;;5081467;28;20034;-85
2023/09/22 11:59:34;;;;;;;3.05;1.25;;;;;;;;;;5056112;28;20048;-82
2023/09/22 12:02:00;;;;;;;1.50;1.02;;;;;;;;;;5064710;28;20040;-82
2023/09/22 12:04:26;;;;;;;2.22;1.42;;;;;;;;;;5081149;28;20032;-82
2023/09/22 12:06:52;;;;;;;2.63;1.95;;;;;;;;;;5079386;28;20028;-83
2023/09/22 12:09:18;;;;;;;2.67;1.85;;;;;;;;;;5078729;28;20090;-81
2023/09/22 12:11:45;;;;;;;7.05;1.58;;;;;;;;;;5072702;28;20135;-83
2023/09/22 12:14:11;;;;;;;4.20;2.08;;;;;;;;;;5077465;28;20396;-87
2023/09/22 12:16:37;;;;;;;0.93;0.73;;;;;;;;;;5071053;28;20029;-81
2023/09/22 12:19:04;;;;;;;3.28;1.80;;;;;;;;;;5083842;28;20052;-82
2023/09/22 12:21:30;;;;;;;2.25;0.80;;;;;;;;;;5077927;28;20107;-81
2023/09/22 12:25:33;;;;;;;1.75;1.10;;;;;;;;;;5059598;28;20388;-80
2023/09/22 12:27:59;;;;;;;4.97;1.40;;;;;;;;;;5069751;28;20048;-81
2023/09/22 12:30:24;;;;;;;3.65;1.92;;;;;;;;;;5068511;28;20104;-80
2023/09/22 12:32:50;;;;;;;4.82;1.80;;;;;;;;;;5063901;28;20464;-79
2023/09/22 12:35:15;;;;;;;2.60;1.15;;;;;;;;;;5064954;28;20087;-80
2023/09/22 12:37:40;;;;;;;8.15;1.80;;;;;;;;;;5074291;28;20032;-77
2023/09/22 12:40:06;;;;;;;3.22;1.63;;;;;;;;;;5072020;28;20460;-77
2023/09/22 12:42:32;;;;;;;3.47;1.30;;;;;;;;;;5067837;28;20028;-79
2023/09/22 12:44:58;;;;;;;4.25;1.42;;;;;;;;;;5068219;28;21859;-78
2023/09/22 12:47:24;;;;;;;1.63;1.25;;;;;;;;;;5065312;28;20036;-78
2023/09/22 12:49:49;;;;;;;1.58;0.88;;;;;;;;;;5063808;28;20678;-79
2023/09/22 12:52:15;;;;;;;5.32;0.95;;;;;;;;;;5061457;28;20028;-80
2023/09/22 12:54:41;;;;;;;2.83;1.52;;;;;;;;;;5063624;28;20043;-79
2023/09/22 12:57:06;;;;;;;4.32;1.65;;;;;;;;;;5067268;28;20021;-80
2023/09/22 12:59:32;;;;;;;2.67;1.40;;;;;;;;;;5067636;28;20028;-81
2023/09/22 13:01:57;;;;;;;5.22;1.80;;;;;;;;;;5078395;28;20021;-80
2023/09/22 13:04:27;;;;;;;2.67;1.38;;;;;;;;;;5067311;28;20477;-79
2023/09/22 13:06:53;;;;;;;2.75;1.40;;;;;;;;;;5058960;28;20112;-80
2023/09/22 13:09:19;;;;;;;3.20;1.42;;;;;;;;;;5075541;28;20575;-79
2023/09/22 13:11:44;;;;;;;3.53;1.23;;;;;;;;;;5069666;28;20376;-79
2023/09/22 13:14:10;;;;;;;2.83;1.55;;;;;;;;;;5075506;28;20021;-81
2023/09/22 13:16:35;;;;;;;1.65;0.85;;;;;;;;;;5076020;28;20111;-79
2023/09/22 13:19:02;;;;;;;4.70;1.60;;;;;;;;;;5073674;28;20033;-80
2023/09/22 13:21:27;;;;;;;2.03;1.25;;;;;;;;;;5072846;28;20461;-80
2023/09/22 13:23:52;;;;;;;1.65;1.48;;;;;;;;;;5074948;28;20056;-80
2023/09/22 13:26:19;;;;;;;2.28;1.63;;;;;;;;;;5073442;28;20033;-80
2023/09/22 13:28:45;;;;;;;1.95;1.10;;;;;;;;;;5077190;28;20062;-79
2023/09/22 13:31:12;;;;;;;1.88;1.35;;;;;;;;;;5075497;28;20024;-80
2023/09/22 13:33:37;;;;;;;4.05;1.20;;;;;;;;;;5067539;28;20111;-81
2023/09/22 13:36:03;;;;;;;5.38;2.45;;;;;;;;;;5065244;28;20108;-79
2023/09/22 13:38:28;;;;;;;5.97;1.65;;;;;;;;;;5059544;28;20468;-79
2023/09/22 13:40:54;;;;;;;4.60;1.40;;;;;;;;;;5064087;28;20487;-80
2023/09/22 13:43:22;;;;;;;1.38;1.00;;;;;;;;;;5059828;28;20044;-78
2023/09/22 13:45:47;;;;;;;3.45;1.23;;;;;;;;;;5052745;28;20067;-80
2023/09/22 13:48:13;;;;;;;7.13;2.38;;;;;;;;;;5058823;28;20437;-79
2023/09/22 13:50:39;;;;;;;4.22;1.45;;;;;;;;;;5054865;28;20464;-81
2023/09/22 13:53:06;;;;;;;4.05;1.65;;;;;;;;;;5057847;28;20370;-78
2023/09/22 13:55:33;;;;;;;3.28;1.33;;;;;;;;;;5052903;28;20124;-81
2023/09/22 13:57:59;;;;;;;9.00;1.45;;;;;;;;;;5060264;28;20020;-80
2023/09/22 14:00:25;;;;;;;5.15;1.20;;;;;;;;;;5062828;28;20461;-80
2023/09/22 14:02:51;;;;;;;6.38;0.98;;;;;;;;;;5056105;28;20029;-81
2023/09/22 14:05:17;;;;;;;3.78;1.52;;;;;;;;;;5064176;28;20421;-81
2023/09/22 14:07:42;;;;;;;3.55;1.42;;;;;;;;;;5060917;28;20469;-80
2023/09/22 14:10:08;;;;;;;3.28;1.20;;;;;;;;;;5061559;28;20420;-79
2023/09/22 14:12:35;;;;;;;1.92;0.90;;;;;;;;;;5060484;28;20490;-82
2023/09/22 14:15:01;;;;;;;1.75;1.13;;;;;;;;;;5061089;28;20469;-79
2023/09/22 14:17:27;;;;;;;8.82;1.83;;;;;;;;;;5060306;28;20036;-81
2023/09/22 14:19:52;;;;;;;4.15;1.42;;;;;;;;;;5059477;28;20029;-81
2023/09/22 14:22:18;;;;;;;1.80;1.05;;;;;;;;;;5052984;28;20028;-80
2023/09/22 14:24:46;;;;;;;7.25;2.10;;;;;;;;;;5068318;28;20086;-80
2023/09/22 14:27:11;;;;;;;3.33;1.02;;;;;;;;;;5059655;28;20044;-80
2023/09/22 14:29:36;;;;;;;6.22;2.20;;;;;;;;;;5056401;28;20033;-80
2023/09/22 14:32:02;;;;;;;10.85;1.77;;;;;;;;;;5056884;28;20102;-81
2023/09/22 14:34:27;;;;;;;1.85;1.02;;;;;;;;;;5058900;28;20136;-80
2023/09/22 14:36:53;;;;;;;1.65;1.25;;;;;;;;;;5058499;28;20024;-80
2023/09/22 14:39:18;;;;;;;1.92;1.15;;;;;;;;;;5066153;28;20420;-79
2023/09/22 14:41:44;;;;;;;2.78;1.52;;;;;;;;;;5059368;28;20040;-82
2023/09/22 14:44:09;;;;;;;13.45;2.20;;;;;;;;;;5058989;28;20046;-81
2023/09/22 14:46:35;;;;;;;2.90;1.83;;;;;;;;;;5055854;28;20040;-81
2023/09/22 14:49:00;;;;;;;3.30;1.20;;;;;;;;;;5054084;28;20029;-81
2023/09/22 14:51:25;;;;;;;6.03;1.55;;;;;;;;;;5055892;28;20378;-81
2023/09/22 14:53:51;;;;;;;2.17;0.88;;;;;;;;;;5066179;28;20086;-81
2023/09/22 14:56:17;;;;;;;2.70;1.40;;;;;;;;;;5058941;28;20087;-81
2023/09/22 14:58:42;;;;;;;8.30;1.67;;;;;;;;;;5053154;28;20032;-81
2023/09/22 15:01:08;;;;;;;3.90;1.55;;;;;;;;;;5053973;28;20021;-80
2023/09/22 15:03:35;;;;;;;2.53;1.42;;;;;;;;;;5064000;28;20032;-81
2023/09/22 15:06:02;;;;;;;2.67;1.30;;;;;;;;;;5059851;28;20113;-80
2023/09/22 15:08:27;;;;;;;2.92;1.70;;;;;;;;;;5066961;28;20475;-81
2023/09/22 15:10:54;;;;;;;4.50;1.23;;;;;;;;;;5052828;28;20083;-80
2023/09/22 15:13:20;;;;;;;4.80;1.75;;;;;;;;;;5058442;28;20461;-81
2023/09/22 15:15:45;;;;;;;2.60;1.60;;;;;;;;;;5053591;28;20028;-82
2023/09/22 15:18:11;;;;;;;8.30;1.75;;;;;;;;;;5063399;28;20029;-81
2023/09/22 15:20:36;;;;;;;1.60;1.10;;;;;;;;;;5052233;28;20029;-82
2023/09/22 15:23:02;;;;;;;2.58;1.77;;;;;;;;;;5056942;28;20115;-81
2023/09/22 15:25:27;;;;;;;6.63;1.38;;;;;;;;;;5054552;28;20102;-79
2023/09/22 15:27:53;;;;;;;2.58;1.67;;;;;;;;;;5060098;28;20028;-80
2023/09/22 15:30:18;;;;;;;4.43;1.58;;;;;;;;;;5057953;28;20083;-81
2023/09/22 15:32:44;;;;;;;6.00;1.40;;;;;;;;;;5057449;28;20040;-81
2023/09/22 15:35:10;;;;;;;0.88;0.88;;;;;;;;;;5060180;28;20070;-81
2023/09/22 15:37:35;;;;;;;3.45;0.88;;;;;;;;;;5063218;28;20430;-82
2023/09/22 15:40:06;;;;;;;5.35;1.92;;;;;;;;;;5056161;28;20096;-80
2023/09/22 15:42:32;;;;;;;3.70;1.75;;;;;;;;;;5063162;28;20035;-80
2023/09/22 15:45:00;;;;;;;2.08;1.42;;;;;;;;;;5055131;28;20103;-81
2023/09/22 15:47:25;;;;;;;3.00;1.13;;;;;;;;;;5059999;28;20024;-84
2023/09/22 15:49:51;;;;;;;2.85;1.92;;;;;;;;;;5057754;28;20380;-82
2023/09/22 15:52:16;;;;;;;4.47;1.58;;;;;;;;;;5062696;28;20468;-80
2023/09/22 15:54:42;;;;;;;10.25;2.08;;;;;;;;;;5054860;28;20119;-82
2023/09/22 15:57:07;;;;;;;8.82;2.10;;;;;;;;;;5052604;28;20029;-79
2023/09/22 15:59:33;;;;;;;3.60;1.42;;;;;;;;;;5053477;28;20052;-81
2023/09/22 16:01:59;;;;;;;2.10;1.15;;;;;;;;;;5056150;28;20039;-79
2023/09/22 16:04:24;;;;;;;14.02;2.85;;;;;;;;;;5050186;28;20028;-81
2023/09/22 16:06:51;;;;;;;1.92;1.45;;;;;;;;;;5060244;28;20028;-80
